Time;durP1;ratioP1;P1;durP2;ratioP2;P2;SDS_P1;SDS_P2;PMS_P1;PMS_P2;Temp;Humidity;BMP_temperature;BMP_pressure;BME280_temperature;BME280_humidity;BME280_pressure;Samples;Min_cycle;Max_cycle;Signal;HPM_P1;HPM_P2
2021/09/05 00:01:59;;;;;;;22.52;15.38;;;;;;;16.34;74.68;101870.72;5075856;28;20086;-55
2021/09/05 00:04:47;;;;;;;20.77;15.23;;;;;;;16.34;74.65;101876.22;5072930;28;20139;-58
2021/09/05 00:07:35;;;;;;;21.90;15.95;;;;;;;16.32;74.62;101872.94;5076049;28;20075;-57
2021/09/05 00:10:22;;;;;;;23.88;15.65;;;;;;;16.27;74.71;101877.63;5057922;28;20075;-58
2021/09/05 00:13:10;;;;;;;24.83;17.05;;;;;;;16.19;74.45;101874.38;5073367;28;20048;-57
2021/09/05 00:15:57;;;;;;;25.42;17.38;;;;;;;16.10;75.14;101873.28;5073172;28;20049;-58
2021/09/05 00:18:45;;;;;;;25.75;16.63;;;;;;;16.08;75.30;101880.97;5072575;28;20084;-57
2021/09/05 00:21:13;;;;;;;22.38;16.20;;;;;;;16.08;75.11;101871.91;5075830;28;20036;-57
2021/09/05 00:23:41;;;;;;;24.98;16.30;;;;;;;16.01;74.70;101876.88;5075407;28;20499;-57
2021/09/05 00:26:10;;;;;;;23.23;15.82;;;;;;;15.95;75.39;101867.84;5075446;28;20045;-56
2021/09/05 00:28:38;;;;;;;23.65;15.82;;;;;;;15.94;75.62;101868.94;5075188;28;20513;-57
2021/09/05 00:31:06;;;;;;;18.50;14.70;;;;;;;15.95;75.37;101873.34;5074996;28;20042;-57
2021/09/05 00:33:34;;;;;;;21.15;15.10;;;;;;;15.96;75.35;101869.47;5075102;28;20047;-54
2021/09/05 00:36:05;;;;;;;23.13;15.35;;;;;;;15.94;75.11;101869.75;5057905;28;20080;-57
2021/09/05 00:38:34;;;;;;;22.55;16.02;;;;;;;15.86;75.13;101873.06;5057946;28;20044;-57
2021/09/05 00:41:02;;;;;;;21.83;15.43;;;;;;;15.75;75.53;101879.66;5075983;28;20028;-58
2021/09/05 00:43:30;;;;;;;23.33;15.05;;;;;;;15.69;75.63;101873.34;5041424;28;20052;-55
2021/09/05 00:45:59;;;;;;;21.15;15.63;;;;;;;15.68;75.77;101873.59;5041196;28;20087;-57
2021/09/05 00:48:29;;;;;;;19.67;14.52;;;;;;;15.72;76.07;101880.25;5040580;28;20079;-58
2021/09/05 00:51:00;;;;;;;25.42;15.48;;;;;;;15.75;75.26;101868.69;5057051;28;20135;-58
2021/09/05 00:53:32;;;;;;;23.23;16.45;;;;;;;15.70;75.19;101877.75;5025027;28;20045;-57
2021/09/05 00:56:02;;;;;;;20.27;15.32;;;;;;;15.57;75.76;101875.56;5056662;28;20047;-58
2021/09/05 00:58:38;;;;;;;22.38;15.27;;;;;;;15.51;75.83;101876.63;5056827;28;20048;-57
2021/09/05 01:01:27;;;;;;;21.48;15.80;;;;;;;15.43;76.58;101878.03;5071888;28;20053;-58
2021/09/05 01:04:15;;;;;;;22.90;15.40;;;;;;;15.42;76.40;101875.56;5074407;28;20449;-57
2021/09/05 01:07:03;;;;;;;24.52;15.07;;;;;;;15.46;76.89;101877.47;5059515;28;20044;-57
2021/09/05 01:09:53;;;;;;;18.60;14.52;;;;;;;15.52;76.36;101881.06;5056195;28;20047;-57
2021/09/05 01:12:42;;;;;;;21.08;14.60;;;;;;;15.54;75.67;101873.38;5072925;28;20462;-55
2021/09/05 01:15:30;;;;;;;21.73;15.48;;;;;;;15.52;76.00;101876.38;5071181;28;20090;-56
2021/09/05 01:18:22;;;;;;;19.70;14.13;;;;;;;15.54;75.66;101870.63;5059714;28;20490;-59
2021/09/05 01:21:05;;;;;;;19.98;13.93;;;;;;;15.58;75.86;101873.63;5056788;28;20419;-58
2021/09/05 01:24:02;;;;;;;24.70;15.40;;;;;;;15.59;75.52;101869.78;5041584;28;20068;-58
2021/09/05 01:26:57;;;;;;;20.85;14.73;;;;;;;15.54;75.17;101862.38;5040001;28;20155;-56
2021/09/05 01:30:05;;;;;;;19.63;13.23;;;;;;;15.50;75.43;101864.84;5073536;28;20053;-58
2021/09/05 01:33:16;;;;;;;18.92;14.50;;;;;;;15.47;75.27;101867.31;4990503;28;20059;-54
2021/09/05 01:36:22;;;;;;;22.40;14.93;;;;;;;15.41;75.47;101873.91;4979509;28;20050;-58
2021/09/05 01:39:20;;;;;;;21.08;14.20;;;;;;;15.34;75.93;101868.69;4992556;28;20046;-54
2021/09/05 01:41:54;;;;;;;21.40;14.50;;;;;;;15.32;75.97;101868.97;4992651;28;20046;-56
2021/09/05 01:44:40;;;;;;;;;;;;;;;15.30;75.95;101859.38;4992473;28;20169;-57
2021/09/05 01:47:39;;;;;;;19.67;13.65;;;;;;;15.21;76.44;101864.56;4972969;28;20482;-57
2021/09/05 01:50:35;;;;;;;17.85;14.10;;;;;;;15.22;76.29;101865.38;4952181;28;20126;-55
2021/09/05 01:53:23;;;;;;;19.48;13.55;;;;;;;15.12;76.53;101868.94;4937699;29;20050;-58
2021/09/05 01:56:15;;;;;;;20.33;14.07;;;;;;;15.12;76.91;101871.69;4937328;29;20071;-58
2021/09/05 01:59:09;;;;;;;21.38;13.23;;;;;;;15.12;76.58;101867.03;4934487;29;20598;-58
2021/09/05 02:02:04;;;;;;;18.45;13.55;;;;;;;15.06;76.93;101876.38;4946358;28;20138;-57
2021/09/05 02:04:54;;;;;;;21.10;13.93;;;;;;;15.10;76.93;101877.47;4937611;29;20043;-57
2021/09/05 02:07:55;;;;;;;19.17;13.40;;;;;;;15.06;76.46;101883.78;4952917;28;20520;-56
2021/09/05 02:11:05;;;;;;;18.92;12.90;;;;;;;14.97;77.02;101874.44;4975634;28;20125;-55
2021/09/05 02:13:55;;;;;;;21.25;13.57;;;;;;;14.96;77.30;101878.25;4994893;28;20085;-58
2021/09/05 02:17:18;;;;;;;17.42;12.88;;;;;;;14.89;77.48;101884.03;4990060;28;20081;-58
2021/09/05 02:20:03;;;;;;;17.80;12.32;;;;;;;14.90;77.42;101886.47;4975641;28;20572;-58
2021/09/05 02:23:09;;;;;;;18.25;13.07;;;;;;;14.90;77.37;101891.16;5024778;28;20049;-56
2021/09/05 02:25:57;;;;;;;20.33;13.48;;;;;;;14.88;77.68;101893.34;4991018;28;20550;-56
2021/09/05 02:29:07;;;;;;;19.75;13.45;;;;;;;14.84;77.56;101893.06;4975710;28;20500;-56
2021/09/05 02:32:08;;;;;;;20.27;13.35;;;;;;;14.80;77.54;101900.19;4964595;28;20125;-58
2021/09/05 02:35:14;;;;;;;19.20;13.52;;;;;;;14.79;78.10;101889.47;4989226;28;20065;-57
2021/09/05 02:38:11;;;;;;;21.92;13.70;;;;;;;14.87;77.70;101895.25;4991488;28;20452;-57
2021/09/05 02:41:19;;;;;;;21.10;13.52;;;;;;;14.91;77.24;101892.78;4989023;28;20106;-56
2021/09/05 02:44:19;;;;;;;21.05;13.18;;;;;;;14.83;77.18;101891.41;4961396;28;20094;-57
2021/09/05 02:47:45;;;;;;;23.25;14.02;;;;;;;14.76;77.54;101890.00;4956455;28;20058;-58
2021/09/05 02:50:52;;;;;;;23.88;13.35;;;;;;;14.77;77.37;101880.66;4969769;28;20093;-58
2021/09/05 02:53:58;;;;;;;26.05;13.75;;;;;;;14.73;77.18;101888.63;4969276;28;20063;-56
2021/09/05 02:57:07;;;;;;;23.30;13.82;;;;;;;14.68;77.61;101888.63;4968813;28;20054;-57
2021/09/05 03:00:05;;;;;;;21.50;13.48;;;;;;;14.49;78.30;101880.84;4956212;28;20167;-59
2021/09/05 03:03:27;;;;;;;19.55;12.82;;;;;;;14.44;78.69;101883.56;4945404;29;20051;-56
2021/09/05 03:06:20;;;;;;;20.17;13.73;;;;;;;14.32;78.89;101882.97;4912892;29;20047;-56
2021/09/05 03:09:23;;;;;;;22.00;13.38;;;;;;;14.40;79.44;101881.63;4952036;28;20043;-55
2021/09/05 03:12:09;;;;;;;20.23;12.82;;;;;;;14.52;78.52;101878.66;4951839;28;20059;-58
2021/09/05 03:15:06;;;;;;;18.80;12.30;;;;;;;14.56;78.00;101874.31;4945042;28;20098;-59
2021/09/05 03:17:50;;;;;;;18.85;12.23;;;;;;;14.58;78.23;101877.63;4935996;29;20122;-58
2021/09/05 03:20:47;;;;;;;18.45;12.50;;;;;;;14.58;77.86;101872.13;4983301;28;20166;-58
2021/09/05 03:23:33;;;;;;;20.02;12.48;;;;;;;14.57;78.27;101881.44;4990924;28;20050;-58
2021/09/05 03:26:19;;;;;;;17.50;11.40;;;;;;;14.47;78.17;101883.00;4980767;28;20595;-58
2021/09/05 03:29:02;;;;;;;22.27;12.68;;;;;;;14.42;78.30;101880.25;4971400;28;20051;-58
2021/09/05 03:31:49;;;;;;;19.85;12.88;;;;;;;14.48;78.68;101884.69;4955188;28;20051;-58
2021/09/05 03:34:43;;;;;;;22.65;13.25;;;;;;;14.52;77.84;101886.88;4940108;28;20446;-55
2021/09/05 03:37:38;;;;;;;21.85;13.32;;;;;;;14.45;78.16;101887.94;4977156;28;20531;-54
2021/09/05 03:40:25;;;;;;;18.67;11.88;;;;;;;14.39;78.43;101885.47;5012191;28;20890;-53
2021/09/05 03:43:12;;;;;;;22.90;14.50;;;;;;;14.37;78.66;101888.47;5010899;28;20084;-58
2021/09/05 03:46:28;;;;;;;18.90;13.05;;;;;;;14.39;78.05;101894.50;4935955;29;20446;-57
2021/09/05 03:49:13;;;;;;;23.92;12.50;;;;;;;14.42;78.69;101890.41;4920630;29;20039;-57
2021/09/05 03:51:51;;;;;;;17.88;11.10;;;;;;;14.42;78.49;101891.22;4921062;29;20098;-58
2021/09/05 03:54:22;;;;;;;20.17;12.63;;;;;;;14.36;77.83;101886.81;4920405;29;20055;-56
2021/09/05 03:57:11;;;;;;;22.90;13.48;;;;;;;14.17;78.64;101888.38;4938693;29;20036;-55
2021/09/05 03:59:59;;;;;;;19.70;12.98;;;;;;;14.13;79.14;101884.50;4951816;29;20047;-58
2021/09/05 04:02:47;;;;;;;20.17;11.35;;;;;;;14.20;79.34;101882.34;4936135;29;20079;-57
2021/09/05 04:05:30;;;;;;;17.05;11.25;;;;;;;14.26;78.38;101892.25;4921415;29;20047;-57
2021/09/05 04:08:18;;;;;;;19.75;12.50;;;;;;;14.14;79.01;101891.63;4951587;29;20457;-58
2021/09/05 04:11:05;;;;;;;18.25;11.48;;;;;;;14.25;78.83;101887.84;4951351;29;20046;-59
2021/09/05 04:13:53;;;;;;;20.33;12.75;;;;;;;14.35;78.31;101896.13;4949216;29;20062;-57
2021/09/05 04:16:40;;;;;;;24.05;12.95;;;;;;;14.30;77.70;101892.53;4951603;29;20071;-58
2021/09/05 04:19:28;;;;;;;24.17;13.57;;;;;;;14.23;77.96;101901.00;4961629;28;20054;-58
2021/09/05 04:22:16;;;;;;;24.42;13.73;;;;;;;14.17;77.93;101897.41;5011343;28;20501;-58
2021/09/05 04:25:05;;;;;;;21.77;13.60;;;;;;;14.13;78.10;101895.47;5011633;28;20046;-56
2021/09/05 04:27:53;;;;;;;22.17;12.88;;;;;;;14.07;78.40;101894.63;5013597;28;20096;-58
2021/09/05 04:30:41;;;;;;;24.90;13.48;;;;;;;14.12;78.49;101891.06;5011714;28;20511;-57
2021/09/05 04:33:28;;;;;;;21.40;12.25;;;;;;;14.16;78.39;101898.50;5011809;28;20061;-57
2021/09/05 04:36:16;;;;;;;19.23;12.13;;;;;;;14.14;77.84;101899.84;5011570;28;20060;-58
2021/09/05 04:38:49;;;;;;;21.48;12.13;;;;;;;14.04;77.90;101904.19;5026609;28;20046;-59
2021/09/05 04:41:17;;;;;;;20.70;12.15;;;;;;;13.98;78.41;101899.78;5011571;28;20050;-54
2021/09/05 04:43:45;;;;;;;22.23;12.70;;;;;;;13.99;78.54;101904.16;5012025;28;20051;-58
2021/09/05 04:46:12;;;;;;;19.15;12.07;;;;;;;14.05;78.11;101908.59;5013541;28;20412;-58
2021/09/05 04:48:40;;;;;;;20.85;12.00;;;;;;;14.03;77.97;101905.28;5015315;28;20042;-58
2021/09/05 04:51:08;;;;;;;16.85;11.02;;;;;;;13.97;78.02;101909.06;5015416;28;20038;-57
2021/09/05 04:53:35;;;;;;;20.50;12.38;;;;;;;13.93;78.29;101913.44;5014794;28;20038;-55
2021/09/05 04:56:03;;;;;;;19.70;12.20;;;;;;;13.96;78.51;101921.13;5015055;28;20138;-57
2021/09/05 04:58:31;;;;;;;17.95;12.13;;;;;;;13.96;77.86;101918.38;5013761;28;20052;-57
2021/09/05 05:00:58;;;;;;;21.95;12.50;;;;;;;13.94;78.29;101922.47;5015170;28;20121;-58
2021/09/05 05:03:27;;;;;;;17.80;11.63;;;;;;;14.01;78.57;101926.63;5015524;28;20125;-57
2021/09/05 05:06:15;;;;;;;21.30;12.73;;;;;;;14.13;77.57;101931.09;5013614;28;20046;-57
2021/09/05 05:08:43;;;;;;;17.98;11.82;;;;;;;14.12;77.60;101924.81;5015075;28;20038;-57
2021/09/05 05:11:16;;;;;;;19.02;11.93;;;;;;;14.16;77.48;101925.91;5013532;28;20125;-58
2021/09/05 05:13:45;;;;;;;22.05;12.32;;;;;;;14.18;77.24;101931.13;5013611;28;20125;-57
2021/09/05 05:16:23;;;;;;;18.73;11.27;;;;;;;14.21;77.17;101936.91;5013545;28;20046;-58
2021/09/05 05:18:53;;;;;;;21.13;13.60;;;;;;;14.21;76.79;101928.66;5013336;28;20045;-57
2021/09/05 05:21:41;;;;;;;23.95;14.40;;;;;;;14.17;76.93;101937.72;5014721;28;20390;-58
2021/09/05 05:24:22;;;;;;;22.77;14.02;;;;;;;14.09;76.76;101929.97;5029953;28;20077;-57
2021/09/05 05:27:10;;;;;;;21.23;13.98;;;;;;;13.95;77.35;101921.38;5046908;28;20056;-59
2021/09/05 05:29:57;;;;;;;23.00;14.32;;;;;;;13.80;78.09;101930.31;5051674;28;20049;-57
2021/09/05 05:32:45;;;;;;;21.52;12.88;;;;;;;13.67;78.85;101928.84;5052860;28;20048;-57
2021/09/05 05:35:32;;;;;;;20.27;13.38;;;;;;;13.69;79.18;101936.81;5051134;28;20118;-59
2021/09/05 05:38:20;;;;;;;16.50;10.93;;;;;;;13.77;79.02;101937.16;5053245;28;20072;-58
2021/09/05 05:40:49;;;;;;;17.63;11.55;;;;;;;13.82;78.56;101939.94;5020048;28;20147;-58
2021/09/05 05:43:37;;;;;;;21.90;12.60;;;;;;;13.86;78.55;101942.97;5050877;28;20059;-59
2021/09/05 05:46:22;;;;;;;;;;;;;;;13.92;77.90;101941.09;5036459;28;20136;-59
2021/09/05 05:49:10;;;;;;;18.13;11.13;;;;;;;13.82;78.56;101939.94;5051206;28;20302;-58
2021/09/05 05:51:38;;;;;;;20.95;12.20;;;;;;;13.75;78.43;101941.25;5053395;28;20045;-59
2021/09/05 05:54:25;;;;;;;17.98;11.43;;;;;;;13.71;79.64;101935.47;5050991;28;20049;-57
2021/09/05 05:57:13;;;;;;;19.00;11.98;;;;;;;13.66;79.51;101934.59;5052921;28;20049;-59
2021/09/05 06:00:00;;;;;;;22.50;12.35;;;;;;;13.62;79.99;101929.66;5050737;28;20052;-57
2021/09/05 06:02:48;;;;;;;18.67;11.93;;;;;;;13.58;80.31;101935.91;5053478;28;20053;-58
2021/09/05 06:05:36;;;;;;;24.20;13.48;;;;;;;13.61;80.41;101938.09;5050120;28;20098;-60
2021/09/05 06:08:27;;;;;;;21.90;11.35;;;;;;;13.66;80.81;101949.09;5038839;28;20061;-60
2021/09/05 06:11:14;;;;;;;18.08;11.23;;;;;;;13.81;80.45;101945.69;5053151;28;20049;-62
2021/09/05 06:13:42;;;;;;;19.40;11.85;;;;;;;13.90;79.84;101943.28;5053529;28;20098;-60
2021/09/05 06:16:10;;;;;;;20.65;12.00;;;;;;;13.91;79.82;101945.75;5053492;28;20056;-59
2021/09/05 06:18:38;;;;;;;23.13;12.85;;;;;;;13.91;79.77;101944.94;5053870;28;20107;-59
2021/09/05 06:21:05;;;;;;;22.17;11.82;;;;;;;13.87;79.80;101944.63;5053401;28;20033;-58
2021/09/05 06:23:33;;;;;;;18.65;10.98;;;;;;;13.93;80.06;101946.31;5053850;28;20045;-55
2021/09/05 06:26:01;;;;;;;18.77;10.25;;;;;;;14.04;80.13;101961.72;5052784;28;20462;-59
2021/09/05 06:28:29;;;;;;;22.23;12.60;;;;;;;14.07;79.55;101961.22;5018405;28;20048;-60
2021/09/05 06:30:57;;;;;;;19.00;11.35;;;;;;;14.05;79.21;101963.41;5053288;28;20037;-57
2021/09/05 06:33:25;;;;;;;19.25;12.25;;;;;;;13.94;79.88;101958.91;5053119;28;20064;-60
2021/09/05 06:35:52;;;;;;;16.90;11.52;;;;;;;13.94;80.33;101956.19;5052657;28;20053;-60
2021/09/05 06:38:20;;;;;;;23.42;14.43;;;;;;;13.89;80.26;101958.88;5052942;28;20055;-59
2021/09/05 06:40:48;;;;;;;21.15;13.10;;;;;;;13.82;80.98;101959.09;5052817;28;20053;-56
2021/09/05 06:43:17;;;;;;;23.05;14.55;;;;;;;13.90;80.85;101966.00;5034679;28;20041;-60
2021/09/05 06:45:45;;;;;;;21.33;11.93;;;;;;;13.98;80.48;101965.53;5035108;28;20054;-60
2021/09/05 06:48:21;;;;;;;18.60;12.00;;;;;;;14.07;80.14;101960.41;5034370;28;20389;-60
2021/09/05 06:50:52;;;;;;;25.67;15.25;;;;;;;14.09;80.33;101960.13;5018408;28;20526;-59
2021/09/05 06:53:24;;;;;;;23.08;14.63;;;;;;;14.11;80.40;101963.44;5034321;28;20045;-59
2021/09/05 06:55:59;;;;;;;23.08;13.75;;;;;;;14.09;80.48;101962.88;5034595;28;20423;-55
2021/09/05 06:58:46;;;;;;;22.92;14.07;;;;;;;14.03;80.76;101960.09;5048871;28;20055;-58
2021/09/05 07:01:14;;;;;;;21.27;13.32;;;;;;;14.10;81.21;101970.00;5052496;28;20025;-58
2021/09/05 07:04:02;;;;;;;18.30;12.50;;;;;;;14.15;80.81;101970.03;5051838;28;20124;-57
2021/09/05 07:06:50;;;;;;;19.58;12.65;;;;;;;14.23;80.78;101975.03;5050240;28;20057;-57
2021/09/05 07:09:18;;;;;;;17.60;11.10;;;;;;;14.32;80.56;101976.19;5051832;28;20123;-56
2021/09/05 07:12:05;;;;;;;16.30;10.70;;;;;;;14.43;80.14;101986.13;5049702;28;20049;-54
2021/09/05 07:14:48;;;;;;;19.90;11.93;;;;;;;14.51;79.78;101983.97;5052574;28;20080;-55
2021/09/05 07:17:36;;;;;;;21.98;12.48;;;;;;;14.52;79.55;101988.34;5049013;28;20045;-57
2021/09/05 07:20:04;;;;;;;18.67;11.70;;;;;;;14.54;79.61;101991.69;5052192;28;20153;-59
2021/09/05 07:22:52;;;;;;;19.88;11.73;;;;;;;14.56;79.51;102000.47;5049161;28;20055;-58
2021/09/05 07:25:40;;;;;;;28.02;13.07;;;;;;;14.56;79.77;102005.97;5051411;28;20056;-57
2021/09/05 07:28:32;;;;;;;20.92;11.88;;;;;;;14.61;79.28;102001.31;5047235;28;20076;-54
2021/09/05 07:31:19;;;;;;;19.17;11.18;;;;;;;14.64;79.49;102006.28;5048408;28;20040;-56
2021/09/05 07:34:07;;;;;;;21.55;11.80;;;;;;;14.72;79.31;102015.09;5051551;28;20045;-55
2021/09/05 07:36:55;;;;;;;24.00;13.02;;;;;;;14.76;79.26;102007.97;5049415;28;20056;-52
2021/09/05 07:39:42;;;;;;;22.42;12.45;;;;;;;14.84;79.23;102019.28;5051775;28;20052;-51
2021/09/05 07:42:30;;;;;;;23.45;13.60;;;;;;;14.95;78.28;102024.81;5051681;28;20514;-53
2021/09/05 07:45:17;;;;;;;19.83;11.32;;;;;;;14.97;77.66;102022.63;5047586;28;20060;-55
2021/09/05 07:48:05;;;;;;;22.25;12.95;;;;;;;15.01;77.79;102012.75;5036434;28;20048;-57
2021/09/05 07:50:53;;;;;;;20.17;11.73;;;;;;;15.03;77.94;102029.78;5042297;28;20045;-56
2021/09/05 07:53:21;;;;;;;20.38;13.05;;;;;;;15.05;77.54;102030.34;5033845;28;20041;-52
2021/09/05 07:56:09;;;;;;;20.88;12.95;;;;;;;15.10;77.34;102033.09;5049230;28;20123;-54
2021/09/05 07:58:36;;;;;;;19.08;11.02;;;;;;;15.10;77.13;102033.94;5051283;28;20047;-53
2021/09/05 08:01:04;;;;;;;22.38;12.63;;;;;;;15.12;77.06;102031.72;5051718;28;20037;-57
2021/09/05 08:03:37;;;;;;;17.20;10.75;;;;;;;15.13;76.81;102043.56;5051634;28;20053;-56
2021/09/05 08:06:05;;;;;;;20.67;11.80;;;;;;;15.12;76.98;102037.22;5051617;28;20060;-56
2021/09/05 08:08:35;;;;;;;21.70;13.15;;;;;;;15.15;77.13;102046.00;5051831;28;20411;-57
2021/09/05 08:11:04;;;;;;;18.95;10.32;;;;;;;15.18;76.85;102040.84;5051854;28;20056;-58
2021/09/05 08:13:33;;;;;;;21.00;12.43;;;;;;;15.22;77.05;102044.66;5051707;28;20426;-58
2021/09/05 08:16:01;;;;;;;19.90;10.68;;;;;;;15.26;76.84;102037.56;5051165;28;20047;-56
2021/09/05 08:18:33;;;;;;;20.02;11.15;;;;;;;15.28;76.41;102043.59;5051898;28;20045;-57
2021/09/05 08:21:01;;;;;;;23.88;12.18;;;;;;;15.36;76.67;102039.50;5054959;28;20140;-54
2021/09/05 08:23:29;;;;;;;18.25;11.95;;;;;;;15.40;76.70;102048.03;5038056;28;20511;-59
2021/09/05 08:25:57;;;;;;;20.23;11.30;;;;;;;15.46;76.31;102044.19;5055771;28;20049;-57
2021/09/05 08:28:25;;;;;;;20.70;11.43;;;;;;;15.47;76.58;102043.13;5055607;28;20049;-58
2021/09/05 08:30:54;;;;;;;19.88;10.85;;;;;;;15.51;76.36;102049.69;5055278;28;20500;-58
2021/09/05 08:33:22;;;;;;;18.67;10.18;;;;;;;15.55;76.40;102053.56;5037583;28;20526;-56
2021/09/05 08:35:51;;;;;;;18.55;12.10;;;;;;;15.58;76.08;102055.75;5037545;28;20519;-56
2021/09/05 08:38:22;;;;;;;21.67;13.88;;;;;;;15.67;76.42;102056.88;5037133;28;20051;-57
2021/09/05 08:41:03;;;;;;;20.17;12.95;;;;;;;15.66;75.88;102058.00;5037456;28;20057;-55
2021/09/05 08:43:51;;;;;;;24.77;13.57;;;;;;;15.69;75.63;102062.94;5052638;28;20049;-54
2021/09/05 08:46:23;;;;;;;21.55;11.82;;;;;;;15.72;75.44;102067.91;5036858;28;20051;-58
2021/09/05 08:49:10;;;;;;;23.63;12.02;;;;;;;15.77;75.76;102062.41;5052459;28;20076;-57
2021/09/05 08:51:58;;;;;;;21.95;13.10;;;;;;;15.85;75.59;102060.22;5052223;28;20052;-56
2021/09/05 08:54:45;;;;;;;24.02;13.32;;;;;;;15.93;74.67;102062.44;5052066;28;20075;-56
2021/09/05 08:57:34;;;;;;;20.23;13.15;;;;;;;15.97;74.52;102066.31;5051868;28;20057;-56
2021/09/05 09:00:22;;;;;;;22.23;13.75;;;;;;;16.01;74.39;102061.88;5039242;28;20488;-56
2021/09/05 09:03:17;;;;;;;25.70;13.15;;;;;;;16.04;73.82;102068.75;5052549;28;20056;-57
2021/09/05 09:06:05;;;;;;;23.00;13.50;;;;;;;16.07;74.67;102069.06;5037878;28;20087;-56
2021/09/05 09:08:33;;;;;;;19.17;10.98;;;;;;;16.15;74.71;102060.25;5054923;28;20128;-56
2021/09/05 09:11:22;;;;;;;21.42;13.00;;;;;;;16.30;73.58;102062.16;5053077;28;20416;-58
2021/09/05 09:14:10;;;;;;;23.10;13.93;;;;;;;16.36;72.86;102068.50;5051452;28;20052;-58
2021/09/05 09:16:57;;;;;;;19.67;12.25;;;;;;;16.38;72.85;102063.56;5052254;28;20053;-57
2021/09/05 09:19:47;;;;;;;21.73;12.65;;;;;;;16.48;73.02;102069.03;5051852;28;20037;-57
2021/09/05 09:22:35;;;;;;;21.00;12.75;;;;;;;16.53;72.59;102055.25;5051489;28;20056;-59
2021/09/05 09:25:06;;;;;;;22.17;13.10;;;;;;;16.60;72.07;102055.81;5036532;28;20076;-61
2021/09/05 09:27:54;;;;;;;23.55;12.35;;;;;;;16.68;71.91;102067.34;5051660;28;20045;-59
2021/09/05 09:30:41;;;;;;;19.58;12.45;;;;;;;16.68;72.17;102065.41;5054292;28;20045;-61
2021/09/05 09:33:30;;;;;;;21.08;12.98;;;;;;;16.75;71.51;102062.38;5037244;28;20491;-59
2021/09/05 09:36:24;;;;;;;21.42;13.73;;;;;;;16.79;72.04;102066.25;5037120;28;20830;-60
2021/09/05 09:39:15;;;;;;;18.23;11.23;;;;;;;16.83;71.68;102059.06;5054110;28;20150;-60
2021/09/05 09:41:43;;;;;;;19.98;12.23;;;;;;;16.85;70.90;102062.38;5054020;28;20103;-60
2021/09/05 09:44:14;;;;;;;20.45;13.40;;;;;;;16.87;71.10;102064.84;5036394;28;20041;-59
2021/09/05 09:46:44;;;;;;;17.90;11.00;;;;;;;16.90;71.60;102065.09;5036301;28;20037;-59
2021/09/05 09:49:14;;;;;;;23.65;13.35;;;;;;;16.99;70.75;102063.41;5053965;28;20128;-57
2021/09/05 09:51:42;;;;;;;19.73;11.35;;;;;;;17.00;71.04;102058.72;5054029;28;20079;-57
2021/09/05 09:54:10;;;;;;;18.55;11.77;;;;;;;17.04;70.88;102057.06;5053754;28;20040;-60
2021/09/05 09:56:37;;;;;;;19.30;12.13;;;;;;;17.13;70.32;102062.84;5053517;28;20061;-59
2021/09/05 09:59:08;;;;;;;26.38;13.77;;;;;;;17.22;70.09;102063.88;5035650;28;20037;-56
2021/09/05 10:01:41;;;;;;;18.77;11.65;;;;;;;17.22;69.77;102059.22;5036144;28;20049;-57
2021/09/05 10:04:09;;;;;;;20.52;11.80;;;;;;;17.19;70.08;102058.94;5036014;28;20065;-59
2021/09/05 10:06:38;;;;;;;18.30;11.57;;;;;;;17.18;70.32;102060.88;5035689;28;20041;-59
2021/09/05 10:09:07;;;;;;;18.58;9.98;;;;;;;17.20;70.92;102061.41;5035855;28;20457;-59
2021/09/05 10:11:37;;;;;;;18.80;12.85;;;;;;;17.30;69.97;102068.81;5035454;28;20337;-60
2021/09/05 10:14:05;;;;;;;21.42;13.13;;;;;;;17.33;69.75;102061.91;5019167;28;20455;-59
2021/09/05 10:16:33;;;;;;;26.38;14.10;;;;;;;17.36;69.49;102062.16;5035618;28;20045;-59
2021/09/05 10:19:05;;;;;;;21.63;11.60;;;;;;;17.39;69.71;102056.09;5035531;28;20056;-58
2021/09/05 10:21:39;;;;;;;21.33;13.88;;;;;;;17.51;69.19;102063.16;5035576;28;20087;-59
2021/09/05 10:24:25;;;;;;;;;;;;;;;17.63;68.18;102060.88;5021841;28;20041;-60
2021/09/05 10:27:11;;;;;;;24.30;14.43;;;;;;;17.67;68.35;102057.28;5035161;28;20108;-60
2021/09/05 10:30:08;;;;;;;24.08;13.70;;;;;;;17.70;67.97;102058.63;5038011;28;20067;-60
2021/09/05 10:32:55;;;;;;;20.88;13.50;;;;;;;17.70;69.20;102061.38;5053325;28;20080;-59
2021/09/05 10:35:47;;;;;;;20.33;12.88;;;;;;;17.85;68.08;102052.25;5038197;28;20415;-60
2021/09/05 10:38:37;;;;;;;21.02;13.07;;;;;;;18.00;67.12;102054.06;5052982;28;20096;-58
2021/09/05 10:41:27;;;;;;;19.95;11.55;;;;;;;18.09;66.99;102042.13;5017734;28;20419;-59
2021/09/05 10:44:14;;;;;;;22.02;13.38;;;;;;;18.13;65.89;102053.38;5051894;28;20403;-57
2021/09/05 10:46:49;;;;;;;24.48;13.43;;;;;;;18.16;66.47;102058.34;5034909;28;20032;-59
2021/09/05 10:49:39;;;;;;;14.68;10.00;;;;;;;18.19;66.42;102041.19;5035931;28;20045;-58
2021/09/05 10:52:46;;;;;;;20.52;12.73;;;;;;;18.22;65.58;102046.13;5052795;28;20045;-59
2021/09/05 10:56:10;;;;;;;25.27;16.73;;;;;;;18.19;65.76;102048.66;5049271;28;20051;-59
2021/09/05 10:59:03;;;;;;;20.83;13.32;;;;;;;18.37;64.73;102041.59;5051900;28;20055;-59
2021/09/05 11:01:39;;;;;;;22.27;12.80;;;;;;;18.47;64.55;102038.72;5052782;28;20458;-60
2021/09/05 11:04:29;;;;;;;26.85;13.02;;;;;;;18.45;64.84;102046.50;4349392;28;10000687;-59
2021/09/05 11:07:31;;;;;;;21.40;13.02;;;;;;;18.45;64.73;102038.22;5049971;28;20495;-58
2021/09/05 11:10:48;;;;;;;21.48;11.13;;;;;;;18.51;64.47;102042.53;5047151;28;20128;-58
2021/09/05 11:13:50;;;;;;;21.85;12.40;;;;;;;18.61;63.94;102042.44;5047658;28;20537;-57
2021/09/05 11:16:39;;;;;;;16.30;10.77;;;;;;;18.60;63.52;102029.75;5047128;28;20052;-53
2021/09/05 11:19:27;;;;;;;23.23;13.38;;;;;;;18.60;64.13;102046.31;5049584;28;20037;-58
2021/09/05 11:21:55;;;;;;;20.77;12.50;;;;;;;18.63;64.23;102040.19;5050290;28;20402;-56
2021/09/05 11:24:25;;;;;;;20.17;12.30;;;;;;;18.67;63.93;102045.97;5049104;28;20040;-58
2021/09/05 11:27:04;;;;;;;21.45;12.98;;;;;;;18.78;62.49;102042.00;5049566;28;20549;-59
2021/09/05 11:29:33;;;;;;;23.05;13.73;;;;;;;18.80;62.44;102044.47;5049763;28;20051;-58
2021/09/05 11:32:06;;;;;;;18.15;11.05;;;;;;;18.91;60.71;102040.47;5050213;28;20047;-58
2021/09/05 11:34:36;;;;;;;23.25;13.00;;;;;;;18.97;60.80;102042.06;5050134;28;20068;-59
2021/09/05 11:37:05;;;;;;;17.80;10.27;;;;;;;18.98;61.04;102045.63;5049792;28;20049;-54
2021/09/05 11:39:34;;;;;;;18.88;11.77;;;;;;;18.96;61.46;102045.94;5048747;28;20060;-58
2021/09/05 11:42:03;;;;;;;23.20;12.93;;;;;;;18.92;61.99;102044.88;5049915;28;20045;-59
2021/09/05 11:44:38;;;;;;;20.90;12.43;;;;;;;18.99;61.95;102045.34;5049950;28;20048;-58
2021/09/05 11:47:11;;;;;;;24.50;13.02;;;;;;;19.14;60.78;102042.38;5050201;28;20044;-58
2021/09/05 11:49:50;;;;;;;20.23;12.68;;;;;;;19.16;61.01;102037.38;5031742;28;20119;-59
2021/09/05 11:52:24;;;;;;;21.20;13.63;;;;;;;19.24;60.89;102043.38;5031848;28;20033;-57
2021/09/05 11:55:14;;;;;;;21.95;12.27;;;;;;;19.39;59.79;102039.59;5052057;28;20084;-58
2021/09/05 11:57:54;;;;;;;20.92;13.15;;;;;;;19.34;59.67;102038.53;5037591;28;20051;-57
2021/09/05 12:00:28;;;;;;;19.58;12.10;;;;;;;19.41;59.46;102040.09;5037086;28;20045;-55
2021/09/05 12:03:07;;;;;;;21.80;13.02;;;;;;;19.39;60.51;102037.66;5036502;28;20041;-60
2021/09/05 12:05:43;;;;;;;17.38;10.18;;;;;;;19.34;60.41;102037.72;5016502;28;20438;-58
2021/09/05 12:08:21;;;;;;;19.50;12.10;;;;;;;19.39;60.21;102040.41;5020553;28;20044;-58
2021/09/05 12:11:07;;;;;;;;;;;;;;;19.38;61.82;102038.75;5036460;28;20380;-56
2021/09/05 12:13:56;;;;;;;18.25;11.68;;;;;;;19.34;61.10;102043.25;5052162;28;20382;-56
2021/09/05 12:16:44;;;;;;;23.48;12.60;;;;;;;19.34;60.54;102043.25;5035541;28;20052;-57
2021/09/05 12:20:02;;;;;;;21.90;12.77;;;;;;;19.35;60.86;102040.16;5050625;28;20059;-58